ASA65 PAPG-PAJN
Flight info
| Callsign | ASA65 |
|---|---|
| Flight time | 0h 23m |
| Altitude | 14000 |
| Route | GLAZZ |
| Aircraft | B738/M-SDE2E3FGHIRWXY/LB1 |
Departure
| Time | 2026-05-09 00:21 |
|---|---|
| Airport | Petersburg James A Johnson Airport (PAPG) |
Arrival
| Time | 2026-05-09 00:45 |
|---|---|
| Airport | Juneau International Airport (PAJN) |
| Time | Latitude | Longitude | Altitude | Speed | Heading |
|---|---|---|---|---|---|
| 2026-05-09 00:05 | 56.80560 | -132.93462 | 82 ft | 0 kts | 71° |
| 2026-05-09 00:17 | 56.80560 | -132.93455 | 82 ft | 2 kts | 91° |
| 2026-05-09 00:18 | 56.80508 | -132.93420 | 83 ft | 10 kts | 158° |
| 2026-05-09 00:18 | 56.80446 | -132.93379 | 84 ft | 10 kts | 173° |
| 2026-05-09 00:18 | 56.80349 | -132.93568 | 83 ft | 35 kts | 249° |
| 2026-05-09 00:18 | 56.80261 | -132.94032 | 78 ft | 39 kts | 252° |
| 2026-05-09 00:19 | 56.80171 | -132.94493 | 77 ft | 38 kts | 250° |
| 2026-05-09 00:19 | 56.80085 | -132.94946 | 79 ft | 37 kts | 251° |
| 2026-05-09 00:19 | 56.80004 | -132.95364 | 87 ft | 33 kts | 251° |
| 2026-05-09 00:19 | 56.79931 | -132.95746 | 94 ft | 30 kts | 250° |
| 2026-05-09 00:20 | 56.79882 | -132.96040 | 102 ft | 16 kts | 266° |
| 2026-05-09 00:20 | 56.79867 | -132.96094 | 103 ft | 4 kts | 63° |
| 2026-05-09 00:20 | 56.79870 | -132.96078 | 103 ft | 1 kts | 75° |
| 2026-05-09 00:20 | 56.79904 | -132.95885 | 98 ft | 43 kts | 71° |
| 2026-05-09 00:21 | 56.80092 | -132.94907 | 78 ft | 117 kts | 71° |
| 2026-05-09 00:21 | 56.80419 | -132.93227 | 213 ft | 155 kts | 71° |
| 2026-05-09 00:21 | 56.80763 | -132.91603 | 1100 ft | 135 kts | 64° |
| 2026-05-09 00:21 | 56.81587 | -132.90591 | 1471 ft | 162 kts | 9° |
| 2026-05-09 00:22 | 56.82703 | -132.91132 | 1827 ft | 180 kts | 336° |
| 2026-05-09 00:22 | 56.83886 | -132.92192 | 2127 ft | 198 kts | 336° |
| 2026-05-09 00:22 | 56.85178 | -132.93341 | 2459 ft | 217 kts | 336° |
| 2026-05-09 00:22 | 56.86580 | -132.94611 | 2863 ft | 235 kts | 335° |
| 2026-05-09 00:23 | 56.88086 | -132.95996 | 3333 ft | 251 kts | 335° |
| 2026-05-09 00:23 | 56.89674 | -132.97467 | 3822 ft | 264 kts | 334° |
| 2026-05-09 00:23 | 56.91357 | -132.99026 | 4278 ft | 280 kts | 334° |
| 2026-05-09 00:23 | 56.93112 | -133.00653 | 4856 ft | 290 kts | 334° |
| 2026-05-09 00:24 | 56.94924 | -133.02331 | 5557 ft | 294 kts | 334° |
| 2026-05-09 00:24 | 56.96752 | -133.04025 | 6278 ft | 298 kts | 334° |
| 2026-05-09 00:24 | 56.98596 | -133.05736 | 6986 ft | 304 kts | 334° |
| 2026-05-09 00:24 | 57.00478 | -133.07484 | 7740 ft | 307 kts | 334° |
| 2026-05-09 00:25 | 57.02386 | -133.09259 | 8458 ft | 312 kts | 333° |
| 2026-05-09 00:25 | 57.04316 | -133.11058 | 9228 ft | 315 kts | 333° |
| 2026-05-09 00:25 | 57.06265 | -133.12877 | 10043 ft | 317 kts | 333° |
| 2026-05-09 00:25 | 57.08263 | -133.14745 | 10575 ft | 331 kts | 332° |
| 2026-05-09 00:26 | 57.10337 | -133.16685 | 11114 ft | 343 kts | 332° |
| 2026-05-09 00:26 | 57.12487 | -133.18706 | 11709 ft | 353 kts | 332° |
| 2026-05-09 00:26 | 57.14679 | -133.20763 | 12532 ft | 355 kts | 331° |
| 2026-05-09 00:26 | 57.16871 | -133.22815 | 13381 ft | 356 kts | 330° |
| 2026-05-09 00:27 | 57.19074 | -133.24884 | 13853 ft | 361 kts | 330° |
| 2026-05-09 00:27 | 57.21321 | -133.27000 | 13954 ft | 362 kts | 330° |
| 2026-05-09 00:27 | 57.23554 | -133.29103 | 13942 ft | 362 kts | 330° |
| 2026-05-09 00:27 | 57.25771 | -133.31194 | 13938 ft | 359 kts | 330° |
| 2026-05-09 00:28 | 57.27994 | -133.33295 | 13947 ft | 359 kts | 330° |
| 2026-05-09 00:28 | 57.30235 | -133.35414 | 13943 ft | 361 kts | 330° |
| 2026-05-09 00:28 | 57.32462 | -133.37524 | 13943 ft | 359 kts | 330° |
| 2026-05-09 00:28 | 57.34671 | -133.39621 | 13948 ft | 359 kts | 330° |
| 2026-05-09 00:29 | 57.36891 | -133.41731 | 13951 ft | 359 kts | 330° |
| 2026-05-09 00:29 | 57.39101 | -133.43835 | 13961 ft | 360 kts | 330° |
| 2026-05-09 00:29 | 57.41322 | -133.45958 | 13950 ft | 358 kts | 330° |
| 2026-05-09 00:29 | 57.43516 | -133.48053 | 13942 ft | 359 kts | 330° |
| 2026-05-09 00:30 | 57.45732 | -133.50177 | 13962 ft | 361 kts | 330° |
| 2026-05-09 00:30 | 57.47947 | -133.52293 | 13958 ft | 361 kts | 331° |
| 2026-05-09 00:30 | 57.50187 | -133.54437 | 13954 ft | 359 kts | 331° |
| 2026-05-09 00:30 | 57.52409 | -133.56567 | 13952 ft | 359 kts | 331° |
| 2026-05-09 00:31 | 57.54608 | -133.58676 | 13954 ft | 359 kts | 331° |
| 2026-05-09 00:31 | 57.56817 | -133.60815 | 13945 ft | 360 kts | 330° |
| 2026-05-09 00:31 | 57.59053 | -133.62976 | 13947 ft | 360 kts | 331° |
| 2026-05-09 00:31 | 57.61214 | -133.65054 | 13953 ft | 347 kts | 330° |
| 2026-05-09 00:32 | 57.63314 | -133.67081 | 13952 ft | 337 kts | 330° |
| 2026-05-09 00:32 | 57.65382 | -133.69080 | 13796 ft | 328 kts | 329° |
| 2026-05-09 00:32 | 57.67405 | -133.71042 | 13465 ft | 336 kts | 329° |
| 2026-05-09 00:32 | 57.69478 | -133.73058 | 13035 ft | 336 kts | 330° |
| 2026-05-09 00:33 | 57.71546 | -133.75072 | 12626 ft | 332 kts | 330° |
| 2026-05-09 00:33 | 57.73554 | -133.77029 | 12202 ft | 330 kts | 329° |
| 2026-05-09 00:33 | 57.75581 | -133.79016 | 11785 ft | 326 kts | 330° |
| 2026-05-09 00:33 | 57.77566 | -133.80951 | 11382 ft | 326 kts | 330° |
| 2026-05-09 00:34 | 57.79598 | -133.82932 | 10944 ft | 327 kts | 330° |
| 2026-05-09 00:34 | 57.81589 | -133.84874 | 10536 ft | 321 kts | 331° |
| 2026-05-09 00:34 | 57.83563 | -133.86798 | 10163 ft | 326 kts | 331° |
| 2026-05-09 00:34 | 57.85561 | -133.88771 | 9935 ft | 322 kts | 332° |
| 2026-05-09 00:35 | 57.87492 | -133.90652 | 9773 ft | 313 kts | 331° |
| 2026-05-09 00:35 | 57.89444 | -133.92560 | 9317 ft | 316 kts | 331° |
| 2026-05-09 00:35 | 57.91384 | -133.94475 | 8938 ft | 316 kts | 330° |
| 2026-05-09 00:35 | 57.93322 | -133.96370 | 8564 ft | 317 kts | 332° |
| 2026-05-09 00:36 | 57.95274 | -133.98276 | 8157 ft | 317 kts | 332° |
| 2026-05-09 00:36 | 57.97204 | -134.00201 | 7795 ft | 316 kts | 331° |
| 2026-05-09 00:36 | 57.99166 | -134.02145 | 7388 ft | 317 kts | 332° |
| 2026-05-09 00:36 | 58.01115 | -134.04076 | 6987 ft | 317 kts | 332° |
| 2026-05-09 00:37 | 58.03049 | -134.05988 | 6607 ft | 316 kts | 333° |
| 2026-05-09 00:37 | 58.04973 | -134.07871 | 6217 ft | 315 kts | 332° |
| 2026-05-09 00:37 | 58.06905 | -134.09796 | 5833 ft | 313 kts | 332° |
| 2026-05-09 00:37 | 58.08810 | -134.11705 | 5446 ft | 301 kts | 332° |
| 2026-05-09 00:38 | 58.10609 | -134.13506 | 5101 ft | 288 kts | 333° |
| 2026-05-09 00:38 | 58.12335 | -134.15230 | 4825 ft | 277 kts | 333° |
| 2026-05-09 00:38 | 58.13994 | -134.16885 | 4674 ft | 267 kts | 333° |
| 2026-05-09 00:38 | 58.15618 | -134.18507 | 4592 ft | 256 kts | 333° |
| 2026-05-09 00:39 | 58.17155 | -134.20046 | 4509 ft | 245 kts | 333° |
| 2026-05-09 00:39 | 58.18565 | -134.21747 | 4374 ft | 238 kts | 321° |
| 2026-05-09 00:39 | 58.19745 | -134.23859 | 4080 ft | 236 kts | 313° |
| 2026-05-09 00:39 | 58.20842 | -134.26096 | 3873 ft | 224 kts | 314° |
| 2026-05-09 00:40 | 58.21894 | -134.28175 | 3729 ft | 212 kts | 315° |
| 2026-05-09 00:40 | 58.22901 | -134.30104 | 3586 ft | 205 kts | 315° |
| 2026-05-09 00:40 | 58.23898 | -134.31995 | 3421 ft | 199 kts | 316° |
| 2026-05-09 00:41 | 58.25687 | -134.35394 | 3139 ft | 166 kts | 316° |
| 2026-05-09 00:41 | 58.26498 | -134.36937 | 2928 ft | 161 kts | 316° |
| 2026-05-09 00:41 | 58.27285 | -134.38434 | 2760 ft | 159 kts | 316° |
| 2026-05-09 00:41 | 58.28054 | -134.39900 | 2603 ft | 158 kts | 317° |
| 2026-05-09 00:42 | 58.28834 | -134.41386 | 2447 ft | 159 kts | 317° |
| 2026-05-09 00:42 | 58.29609 | -134.42876 | 2283 ft | 157 kts | 316° |
| 2026-05-09 00:42 | 58.30381 | -134.44357 | 2145 ft | 157 kts | 316° |
| 2026-05-09 00:42 | 58.31148 | -134.45807 | 2012 ft | 157 kts | 317° |
| 2026-05-09 00:43 | 58.31924 | -134.47261 | 1786 ft | 157 kts | 317° |
| 2026-05-09 00:43 | 58.32699 | -134.48692 | 1483 ft | 153 kts | 318° |
| 2026-05-09 00:43 | 58.33515 | -134.49976 | 1202 ft | 151 kts | 323° |
| 2026-05-09 00:43 | 58.34323 | -134.51242 | 861 ft | 154 kts | 313° |
| 2026-05-09 00:44 | 58.34864 | -134.52969 | 365 ft | 155 kts | 284° |
| 2026-05-09 00:44 | 58.35113 | -134.54898 | 70 ft | 145 kts | 284° |
| 2026-05-09 00:44 | 58.35359 | -134.56641 | -16 ft | 114 kts | 287° |
| 2026-05-09 00:44 | 58.35493 | -134.57603 | -12 ft | 50 kts | 285° |
| 2026-05-09 00:45 | 58.35550 | -134.58014 | -11 ft | 18 kts | 297° |
| 2026-05-09 00:45 | 58.35578 | -134.58046 | -11 ft | 0 kts | 23° |
| 2026-05-09 00:45 | 58.35601 | -134.58038 | -10 ft | 4 kts | 11° |
| 2026-05-09 00:45 | 58.35628 | -134.58028 | -10 ft | 6 kts | 11° |
| 2026-05-09 00:46 | 58.35660 | -134.58048 | -9 ft | 4 kts | 319° |
| 2026-05-09 00:46 | 58.35672 | -134.58086 | -9 ft | 3 kts | 291° |
| 2026-05-09 00:46 | 58.35683 | -134.58166 | -9 ft | 12 kts | 284° |
| 2026-05-09 00:46 | 58.35707 | -134.58337 | -11 ft | 14 kts | 287° |
| 2026-05-09 00:47 | 58.35733 | -134.58525 | -12 ft | 14 kts | 286° |
| 2026-05-09 00:47 | 58.35788 | -134.58578 | -12 ft | 10 kts | 70° |
| 2026-05-09 00:47 | 58.35824 | -134.58476 | -12 ft | 7 kts | 45° |
| 2026-05-09 00:47 | 58.35846 | -134.58435 | -10 ft | 0 kts | 44° |